createdAt,value
2023-07-21T00:02:08.916Z,17.01
2023-07-21T00:04:41.274Z,17.03
2023-07-21T00:07:14.001Z,17.00
2023-07-21T00:09:47.205Z,17.00
2023-07-21T00:12:20.262Z,17.01
2023-07-21T00:14:53.444Z,17.01
2023-07-21T00:17:26.860Z,16.98
2023-07-21T00:20:00.321Z,16.96
2023-07-21T00:22:33.006Z,16.99
2023-07-21T00:25:06.819Z,17.01
2023-07-21T00:27:39.609Z,17.05
2023-07-21T00:30:14.883Z,17.08
2023-07-21T00:32:47.458Z,17.10
2023-07-21T00:35:20.086Z,17.11
2023-07-21T00:37:52.533Z,17.12
2023-07-21T00:40:27.259Z,17.13
2023-07-21T00:43:01.228Z,17.12
2023-07-21T00:45:38.601Z,17.11
2023-07-21T00:48:12.369Z,17.09
2023-07-21T00:50:49.876Z,17.10
2023-07-21T00:53:23.156Z,17.09
2023-07-21T00:55:55.553Z,17.05
2023-07-21T00:58:28.241Z,17.04
2023-07-21T01:01:03.383Z,17.03
2023-07-21T01:03:36.950Z,17.03
2023-07-21T01:06:11.464Z,17.04
2023-07-21T01:08:44.213Z,17.04
2023-07-21T01:11:17.702Z,17.05
2023-07-21T01:13:50.844Z,17.04
2023-07-21T01:16:25.367Z,17.05
2023-07-21T01:18:58.816Z,17.06
2023-07-21T01:21:38.053Z,17.07
2023-07-21T01:24:18.437Z,17.10
2023-07-21T01:26:52.114Z,17.11
2023-07-21T01:29:25.710Z,17.11
2023-07-21T01:32:01.234Z,17.07
2023-07-21T01:34:36.418Z,17.04
2023-07-21T01:37:09.975Z,17.01
2023-07-21T01:39:43.756Z,17.00
2023-07-21T01:42:16.325Z,16.98
2023-07-21T01:44:48.869Z,16.96
2023-07-21T01:47:22.603Z,16.95
2023-07-21T01:49:55.010Z,16.93
2023-07-21T01:52:28.855Z,16.92
2023-07-21T01:55:10.339Z,16.92
2023-07-21T01:57:57.770Z,16.91
2023-07-21T02:00:48.098Z,16.89
2023-07-21T02:03:25.610Z,16.87
2023-07-21T02:05:58.175Z,16.82
2023-07-21T02:08:30.844Z,16.80
2023-07-21T02:11:03.819Z,16.78
2023-07-21T02:14:02.398Z,16.76
2023-07-21T02:16:37.381Z,16.76
2023-07-21T02:19:10.692Z,16.75
2023-07-21T02:21:43.726Z,16.77
2023-07-21T02:24:16.168Z,16.79
2023-07-21T02:26:48.681Z,16.79
2023-07-21T02:29:21.326Z,16.77
2023-07-21T02:31:53.938Z,16.75
2023-07-21T02:34:26.534Z,16.74
2023-07-21T02:36:59.220Z,16.72
2023-07-21T02:39:32.361Z,16.73
2023-07-21T02:42:05.277Z,16.69
2023-07-21T02:44:37.790Z,16.66
2023-07-21T02:47:11.477Z,16.67
2023-07-21T02:49:44.591Z,16.69
2023-07-21T02:52:17.389Z,16.70
2023-07-21T02:54:52.375Z,16.70
2023-07-21T02:57:25.568Z,16.70
2023-07-21T02:59:58.102Z,16.72
2023-07-21T03:02:35.454Z,16.74
2023-07-21T03:05:10.030Z,16.75
2023-07-21T03:07:42.898Z,16.73
2023-07-21T03:10:17.698Z,16.73
2023-07-21T03:12:50.962Z,16.71
2023-07-21T03:15:28.634Z,16.69
2023-07-21T03:18:27.531Z,16.69
2023-07-21T03:21:23.380Z,16.71
2023-07-21T03:23:57.425Z,16.72
2023-07-21T03:26:32.119Z,16.74
2023-07-21T03:29:06.524Z,16.76
2023-07-21T03:31:40.263Z,16.78
2023-07-21T03:34:20.075Z,16.79
2023-07-21T03:36:52.823Z,16.78
2023-07-21T03:39:26.498Z,16.79
2023-07-21T03:42:00.766Z,16.77
2023-07-21T03:44:33.099Z,16.76
2023-07-21T03:47:06.535Z,16.78
2023-07-21T03:49:46.576Z,16.81
2023-07-21T03:52:19.921Z,16.80
2023-07-21T03:54:53.012Z,16.81
2023-07-21T03:57:27.056Z,16.81
2023-07-21T03:59:59.688Z,16.84
2023-07-21T04:02:32.132Z,16.89
2023-07-21T04:05:04.974Z,16.90
2023-07-21T04:07:37.704Z,16.92
2023-07-21T04:10:12.213Z,16.93
2023-07-21T04:12:44.885Z,16.96
2023-07-21T04:15:17.799Z,16.99
2023-07-21T04:17:50.221Z,17.03
2023-07-21T04:20:23.638Z,17.04
2023-07-21T04:22:56.230Z,17.07
2023-07-21T04:25:29.720Z,17.10
2023-07-21T04:28:06.936Z,17.10
2023-07-21T04:30:42.051Z,17.11
2023-07-21T04:33:15.107Z,17.12
2023-07-21T04:35:49.281Z,17.12
2023-07-21T04:38:28.099Z,17.16
2023-07-21T04:41:10.807Z,17.17
2023-07-21T04:43:43.681Z,17.19
2023-07-21T04:46:16.480Z,17.23
2023-07-21T04:48:49.413Z,17.22
2023-07-21T04:51:31.582Z,17.23
2023-07-21T04:54:04.044Z,17.25
2023-07-21T04:56:36.635Z,17.29
2023-07-21T04:59:09.880Z,17.34
2023-07-21T05:01:43.120Z,17.39
2023-07-21T05:04:16.043Z,17.44
2023-07-21T05:06:49.067Z,17.48
2023-07-21T05:09:21.956Z,17.51
2023-07-21T05:11:55.604Z,17.55
2023-07-21T05:15:00.811Z,17.60
2023-07-21T05:17:52.900Z,17.68
2023-07-21T05:20:41.079Z,17.77
2023-07-21T05:23:34.129Z,17.91
2023-07-21T05:26:14.523Z,18.05
2023-07-21T05:28:47.970Z,18.19
2023-07-21T05:31:21.481Z,18.30
2023-07-21T05:34:08.896Z,18.42
2023-07-21T05:36:42.525Z,18.54
2023-07-21T05:39:14.973Z,18.63
2023-07-21T05:41:47.545Z,18.73
2023-07-21T05:44:20.385Z,18.87
2023-07-21T05:46:52.939Z,19.01
2023-07-21T05:49:25.393Z,19.13
2023-07-21T05:51:59.337Z,19.26
2023-07-21T05:54:40.647Z,19.42
2023-07-21T05:57:14.991Z,19.61
2023-07-21T05:59:50.777Z,19.69
2023-07-21T06:02:23.386Z,19.75
2023-07-21T06:05:01.373Z,19.77
2023-07-21T06:07:45.883Z,19.76
2023-07-21T06:10:23.834Z,19.74
2023-07-21T06:13:10.163Z,19.76
2023-07-21T06:16:10.546Z,19.78
2023-07-21T06:18:48.767Z,19.83
2023-07-21T06:21:22.395Z,19.87
2023-07-21T06:23:54.943Z,19.93
2023-07-21T06:26:28.808Z,20.02
2023-07-21T06:29:01.934Z,20.11
2023-07-21T06:31:34.736Z,20.12
2023-07-21T06:34:27.520Z,20.15
2023-07-21T06:37:18.906Z,20.22
2023-07-21T06:40:20.627Z,20.29
2023-07-21T06:43:19.649Z,20.34
2023-07-21T06:46:11.135Z,20.38
2023-07-21T06:49:12.564Z,20.48
2023-07-21T06:51:57.125Z,20.58
2023-07-21T06:54:32.193Z,20.64
2023-07-21T06:57:06.662Z,20.72
2023-07-21T06:59:39.672Z,20.82
2023-07-21T07:02:14.015Z,20.90
2023-07-21T07:04:46.546Z,21.03
2023-07-21T07:07:19.813Z,21.15
2023-07-21T07:09:52.477Z,21.20
2023-07-21T07:12:27.385Z,21.22
2023-07-21T07:15:00.153Z,21.26
2023-07-21T07:17:32.735Z,21.32
2023-07-21T07:20:08.654Z,21.40
2023-07-21T07:22:41.367Z,21.50
2023-07-21T07:25:14.390Z,21.60
2023-07-21T07:27:47.039Z,21.72
2023-07-21T07:30:21.964Z,21.88
2023-07-21T07:32:54.905Z,22.09
2023-07-21T07:35:27.751Z,22.27
2023-07-21T07:38:00.610Z,22.41
2023-07-21T07:40:36.177Z,22.54
2023-07-21T07:43:09.752Z,22.72
2023-07-21T07:45:42.413Z,22.88
2023-07-21T07:48:15.748Z,22.95
2023-07-21T07:50:48.472Z,22.97
2023-07-21T07:53:20.887Z,23.00
2023-07-21T07:55:54.626Z,23.02
2023-07-21T07:58:27.483Z,23.04
2023-07-21T08:01:04.315Z,23.09
2023-07-21T08:03:38.444Z,23.14
2023-07-21T08:06:11.028Z,23.20
2023-07-21T08:08:44.290Z,23.22
2023-07-21T08:11:17.471Z,23.26
2023-07-21T08:13:50.098Z,23.19
2023-07-21T08:16:22.791Z,23.14
2023-07-21T08:18:55.552Z,23.10
2023-07-21T08:21:29.523Z,22.99
2023-07-21T08:24:02.188Z,22.92
2023-07-21T08:26:34.648Z,23.03
2023-07-21T08:29:09.403Z,23.18
2023-07-21T08:31:42.165Z,23.19
2023-07-21T08:34:15.212Z,23.17
2023-07-21T08:36:54.457Z,23.31
2023-07-21T08:39:28.020Z,23.47
2023-07-21T08:42:04.716Z,23.47
2023-07-21T08:44:39.069Z,23.45
2023-07-21T08:47:09.863Z,23.46
2023-07-21T08:49:42.243Z,23.35
2023-07-21T08:52:14.904Z,23.34
2023-07-21T08:54:47.462Z,23.39
2023-07-21T08:57:20.459Z,23.41
2023-07-21T08:59:56.129Z,23.58
2023-07-21T09:02:43.291Z,23.78
2023-07-21T09:05:21.080Z,23.86
2023-07-21T09:07:54.051Z,23.84
2023-07-21T09:10:36.316Z,23.92
2023-07-21T09:13:18.436Z,24.03
2023-07-21T09:15:58.567Z,24.03
2023-07-21T09:18:32.856Z,23.94
2023-07-21T09:21:05.763Z,23.98
2023-07-21T09:23:39.790Z,24.02
2023-07-21T09:26:12.203Z,23.90
2023-07-21T09:28:46.541Z,23.72
2023-07-21T09:31:19.248Z,23.56
2023-07-21T09:33:51.962Z,23.42
2023-07-21T09:36:27.241Z,23.45
2023-07-21T09:39:02.572Z,23.66
2023-07-21T09:41:36.878Z,23.85
2023-07-21T09:44:10.515Z,24.03
2023-07-21T09:46:44.314Z,24.23
2023-07-21T09:49:17.049Z,24.50
2023-07-21T09:51:52.283Z,24.80
2023-07-21T09:54:30.793Z,25.02
2023-07-21T09:57:05.203Z,25.06
2023-07-21T09:59:40.781Z,24.94
2023-07-21T10:02:14.311Z,24.82
2023-07-21T10:04:47.502Z,24.66
2023-07-21T10:07:20.829Z,24.56
2023-07-21T10:09:54.767Z,24.43
2023-07-21T10:12:41.699Z,24.30
2023-07-21T10:15:30.237Z,24.19
2023-07-21T10:18:04.821Z,24.18
2023-07-21T10:20:51.881Z,24.21
2023-07-21T10:23:28.412Z,24.35
2023-07-21T10:26:04.578Z,24.51
2023-07-21T10:28:40.096Z,24.79
2023-07-21T10:31:37.887Z,25.00
2023-07-21T10:34:16.217Z,25.14
2023-07-21T10:36:59.041Z,25.29
2023-07-21T10:39:32.915Z,25.46
2023-07-21T10:42:07.267Z,25.53
2023-07-21T10:44:41.409Z,25.46
2023-07-21T10:47:16.976Z,25.34
2023-07-21T10:49:50.835Z,25.14
2023-07-21T10:52:24.260Z,25.21
2023-07-21T10:55:01.280Z,25.43
2023-07-21T10:57:39.300Z,25.65
2023-07-21T11:00:17.174Z,25.84
2023-07-21T11:02:55.113Z,25.90
2023-07-21T11:05:27.738Z,25.86
2023-07-21T11:08:00.937Z,25.80
2023-07-21T11:10:36.672Z,25.88
2023-07-21T11:13:09.199Z,25.89
2023-07-21T11:15:42.037Z,25.71
2023-07-21T11:18:14.586Z,25.41
2023-07-21T11:20:53.254Z,25.21
2023-07-21T11:23:27.387Z,25.23
2023-07-21T11:26:11.517Z,25.34
2023-07-21T11:28:44.899Z,25.46
2023-07-21T11:31:19.704Z,25.58
2023-07-21T11:33:52.920Z,25.72
2023-07-21T11:36:26.550Z,25.70
2023-07-21T11:39:05.945Z,25.57
2023-07-21T11:41:51.199Z,25.36
2023-07-21T11:44:25.787Z,25.24
2023-07-21T11:47:06.682Z,25.23
2023-07-21T11:49:43.070Z,25.30
2023-07-21T11:52:26.190Z,25.42
2023-07-21T11:55:02.746Z,25.53
2023-07-21T11:57:35.801Z,25.58
2023-07-21T12:00:13.550Z,25.57
2023-07-21T12:02:46.162Z,25.63
2023-07-21T12:05:19.320Z,25.70
2023-07-21T12:07:53.596Z,25.65
2023-07-21T12:10:25.042Z,25.49
2023-07-21T12:12:57.777Z,25.35
2023-07-21T12:15:31.071Z,25.24
2023-07-21T12:18:04.792Z,25.08
2023-07-21T12:20:37.613Z,24.93
2023-07-21T12:23:16.608Z,24.82
2023-07-21T12:25:49.792Z,24.77
2023-07-21T12:28:22.952Z,24.72
2023-07-21T12:30:57.723Z,24.67
2023-07-21T12:33:30.911Z,24.59
2023-07-21T12:36:04.454Z,24.51
2023-07-21T12:38:37.216Z,24.48
2023-07-21T12:41:09.774Z,24.59
2023-07-21T12:43:42.285Z,24.73
2023-07-21T12:46:16.305Z,24.86
2023-07-21T12:48:49.083Z,24.88
2023-07-21T12:51:21.915Z,24.96
2023-07-21T12:53:54.687Z,25.09
2023-07-21T12:56:27.778Z,25.16
2023-07-21T12:59:01.092Z,25.16
2023-07-21T13:01:33.771Z,25.22
2023-07-21T13:04:08.914Z,25.27
2023-07-21T13:06:45.765Z,25.43
2023-07-21T13:09:18.345Z,25.57
2023-07-21T13:11:51.740Z,25.71
2023-07-21T13:14:26.559Z,25.71
2023-07-21T13:16:59.088Z,25.68
2023-07-21T13:19:31.862Z,25.69
2023-07-21T13:22:06.630Z,25.69
2023-07-21T13:24:39.475Z,25.67
2023-07-21T13:27:12.271Z,25.69
2023-07-21T13:29:45.052Z,25.64
2023-07-21T13:32:17.554Z,25.55
2023-07-21T13:34:50.173Z,25.51
2023-07-21T13:37:22.695Z,25.54
2023-07-21T13:39:55.798Z,25.58
2023-07-21T13:42:28.747Z,25.50
2023-07-21T13:45:01.386Z,25.40
2023-07-21T13:47:34.457Z,25.40
2023-07-21T13:50:10.463Z,25.41
2023-07-21T13:52:43.196Z,25.48
2023-07-21T13:55:15.654Z,25.49
2023-07-21T13:57:48.190Z,25.46
2023-07-21T14:00:23.052Z,25.41
2023-07-21T14:02:55.435Z,25.41
2023-07-21T14:05:27.958Z,25.42
2023-07-21T14:08:00.529Z,25.39
2023-07-21T14:10:32.993Z,25.33
2023-07-21T14:13:05.583Z,25.35
2023-07-21T14:15:38.256Z,25.43
2023-07-21T14:18:10.827Z,25.43
2023-07-21T14:20:43.504Z,25.39
2023-07-21T14:23:16.026Z,25.36
2023-07-21T14:25:48.552Z,25.31
2023-07-21T14:28:20.926Z,25.32
2023-07-21T14:30:53.462Z,25.38
2023-07-21T14:33:26.042Z,25.41
2023-07-21T14:35:58.871Z,25.36
2023-07-21T14:38:32.940Z,25.23
2023-07-21T14:41:04.570Z,25.14
2023-07-21T14:43:37.202Z,25.01
2023-07-21T14:46:09.986Z,24.91
2023-07-21T14:48:42.482Z,24.85
2023-07-21T14:51:15.315Z,24.80
2023-07-21T14:53:47.888Z,24.74
2023-07-21T14:56:20.744Z,24.69
2023-07-21T14:58:53.711Z,24.66
2023-07-21T15:01:26.427Z,24.63
2023-07-21T15:03:59.449Z,24.58
2023-07-21T15:06:32.113Z,24.54
2023-07-21T15:09:06.496Z,24.53
2023-07-21T15:11:40.566Z,24.52
2023-07-21T15:14:13.491Z,24.49
2023-07-21T15:16:47.727Z,24.47
2023-07-21T15:19:19.344Z,24.43
2023-07-21T15:21:51.864Z,24.37
2023-07-21T15:24:25.289Z,24.31
2023-07-21T15:27:02.281Z,24.27
2023-07-21T15:29:34.884Z,24.25
2023-07-21T15:32:09.175Z,24.27
2023-07-21T15:34:43.025Z,24.28
2023-07-21T15:37:15.789Z,24.29
2023-07-21T15:39:48.340Z,24.31
2023-07-21T15:42:21.398Z,24.30
2023-07-21T15:44:54.425Z,24.27
2023-07-21T15:47:26.940Z,24.24
2023-07-21T15:49:59.632Z,24.23
2023-07-21T15:52:32.094Z,24.22
2023-07-21T15:55:05.090Z,24.20
2023-07-21T15:57:37.563Z,24.19
2023-07-21T16:00:17.435Z,24.17
2023-07-21T16:02:51.034Z,24.14
2023-07-21T16:05:24.242Z,24.14
2023-07-21T16:07:57.119Z,24.15
2023-07-21T16:10:29.881Z,24.16
2023-07-21T16:13:02.556Z,24.17
2023-07-21T16:15:34.957Z,24.18
2023-07-21T16:18:07.546Z,24.18
2023-07-21T16:20:40.082Z,24.18
2023-07-21T16:23:13.419Z,24.18
2023-07-21T16:25:46.211Z,24.18
2023-07-21T16:28:18.602Z,24.14
2023-07-21T16:30:54.489Z,24.13
2023-07-21T16:33:27.174Z,24.13
2023-07-21T16:35:59.660Z,24.13
2023-07-21T16:38:33.020Z,24.14
2023-07-21T16:41:05.942Z,24.13
2023-07-21T16:43:38.493Z,24.12
2023-07-21T16:46:12.531Z,24.09
2023-07-21T16:48:45.267Z,24.07
2023-07-21T16:51:17.771Z,24.08
2023-07-21T16:53:50.323Z,24.06
2023-07-21T16:56:22.716Z,24.04
2023-07-21T16:58:55.183Z,24.03
2023-07-21T17:01:27.944Z,24.01
2023-07-21T17:04:01.405Z,24.01
2023-07-21T17:06:34.658Z,23.99
2023-07-21T17:09:07.898Z,23.98
2023-07-21T17:11:41.578Z,23.97
2023-07-21T17:14:13.984Z,23.97
2023-07-21T17:17:00.998Z,23.95
2023-07-21T17:19:52.448Z,23.94
2023-07-21T17:22:26.317Z,23.90
2023-07-21T17:25:06.285Z,23.88
2023-07-21T17:27:39.059Z,23.85
2023-07-21T17:30:14.418Z,23.82
2023-07-21T17:32:55.755Z,23.78
2023-07-21T17:35:28.782Z,23.73
2023-07-21T17:38:02.910Z,23.66
2023-07-21T17:40:39.157Z,23.64
2023-07-21T17:43:15.427Z,23.59
2023-07-21T17:45:50.051Z,23.56
2023-07-21T17:48:25.920Z,23.54
2023-07-21T17:51:01.004Z,23.50
2023-07-21T17:53:36.200Z,23.47
2023-07-21T17:56:10.414Z,23.42
2023-07-21T17:58:43.256Z,23.36
2023-07-21T18:01:16.301Z,23.29
2023-07-21T18:03:51.122Z,23.23
2023-07-21T18:06:23.620Z,23.16
2023-07-21T18:08:56.694Z,23.10
2023-07-21T18:11:29.363Z,23.01
2023-07-21T18:14:02.281Z,22.94
2023-07-21T18:16:35.016Z,22.86
2023-07-21T18:19:08.224Z,22.79
2023-07-21T18:21:41.211Z,22.72
2023-07-21T18:24:26.916Z,22.62
2023-07-21T18:27:02.092Z,22.53
2023-07-21T18:29:34.910Z,22.44
2023-07-21T18:32:13.896Z,22.36
2023-07-21T18:34:49.259Z,22.31
2023-07-21T18:37:30.024Z,22.24
2023-07-21T18:40:13.192Z,22.17
2023-07-21T18:42:53.606Z,22.09
2023-07-21T18:45:27.470Z,22.04
2023-07-21T18:48:03.133Z,21.97
2023-07-21T18:50:51.520Z,21.89
2023-07-21T18:53:28.037Z,21.82
2023-07-21T18:56:02.348Z,21.80
2023-07-21T18:58:35.588Z,21.78
2023-07-21T19:01:09.838Z,21.77
2023-07-21T19:03:48.566Z,21.73
2023-07-21T19:06:27.308Z,21.70
2023-07-21T19:09:05.183Z,21.69
2023-07-21T19:11:40.370Z,21.71
2023-07-21T19:14:18.256Z,21.72
2023-07-21T19:16:58.493Z,21.70
2023-07-21T19:19:35.932Z,21.67
2023-07-21T19:22:11.019Z,21.67
2023-07-21T19:24:46.138Z,21.65
2023-07-21T19:27:22.027Z,21.64
2023-07-21T19:29:55.325Z,21.64
2023-07-21T19:32:28.515Z,21.64
2023-07-21T19:35:01.688Z,21.64
2023-07-21T19:37:38.126Z,21.63
2023-07-21T19:40:16.408Z,21.61
2023-07-21T19:42:49.767Z,21.59
2023-07-21T19:45:22.635Z,21.59
2023-07-21T19:47:57.044Z,21.57
2023-07-21T19:50:28.318Z,21.50
2023-07-21T19:53:05.724Z,21.37
2023-07-21T19:55:42.319Z,21.30
2023-07-21T19:58:17.482Z,21.25
2023-07-21T20:00:54.575Z,21.18
2023-07-21T20:03:27.859Z,21.12
2023-07-21T20:06:01.496Z,21.06
2023-07-21T20:08:34.610Z,21.03
2023-07-21T20:11:07.514Z,21.03
2023-07-21T20:13:40.301Z,21.01
2023-07-21T20:16:13.436Z,21.01
2023-07-21T20:18:46.761Z,21.00
2023-07-21T20:21:22.793Z,20.95
2023-07-21T20:23:56.829Z,20.90
2023-07-21T20:26:29.443Z,20.86
2023-07-21T20:29:05.559Z,20.82
2023-07-21T20:31:38.362Z,20.80
2023-07-21T20:34:11.533Z,20.78
2023-07-21T20:36:45.457Z,20.78
2023-07-21T20:39:17.950Z,20.77
2023-07-21T20:41:50.755Z,20.76
2023-07-21T20:44:23.233Z,20.77
2023-07-21T20:46:57.224Z,20.79
2023-07-21T20:49:29.820Z,20.81
2023-07-21T20:52:02.248Z,20.84
2023-07-21T20:54:34.609Z,20.83
2023-07-21T20:57:13.087Z,20.85
2023-07-21T20:59:49.857Z,20.86
2023-07-21T21:02:22.883Z,20.86
2023-07-21T21:04:55.259Z,20.85
2023-07-21T21:07:27.666Z,20.82
2023-07-21T21:10:00.890Z,20.81
2023-07-21T21:12:34.442Z,20.79
2023-07-21T21:15:10.214Z,20.80
2023-07-21T21:17:43.958Z,20.80
2023-07-21T21:20:18.271Z,20.80
2023-07-21T21:22:50.708Z,20.79
2023-07-21T21:25:23.874Z,20.79
2023-07-21T21:27:57.219Z,20.79
2023-07-21T21:30:29.753Z,20.79
2023-07-21T21:33:02.198Z,20.78
2023-07-21T21:35:35.477Z,20.76
2023-07-21T21:38:08.142Z,20.74
2023-07-21T21:40:40.608Z,20.74
2023-07-21T21:43:13.111Z,20.71
2023-07-21T21:45:45.681Z,20.71
2023-07-21T21:48:18.409Z,20.72
2023-07-21T21:50:51.005Z,20.75
2023-07-21T21:53:23.432Z,20.75
2023-07-21T21:55:56.847Z,20.73
2023-07-21T21:58:33.240Z,20.70
2023-07-21T22:01:06.661Z,20.69
2023-07-21T22:03:42.823Z,20.66
2023-07-21T22:06:16.161Z,20.61
2023-07-21T22:08:48.614Z,20.55
2023-07-21T22:11:21.291Z,20.53
2023-07-21T22:13:54.205Z,20.54
2023-07-21T22:16:27.041Z,20.56
2023-07-21T22:18:59.690Z,20.57
2023-07-21T22:21:32.389Z,20.56
2023-07-21T22:24:05.331Z,20.53
2023-07-21T22:26:37.959Z,20.56
2023-07-21T22:29:10.626Z,20.55
2023-07-21T22:31:43.364Z,20.53
2023-07-21T22:34:16.970Z,20.53
2023-07-21T22:36:49.457Z,20.55
2023-07-21T22:39:24.297Z,20.54
2023-07-21T22:41:56.970Z,20.55
2023-07-21T22:44:29.350Z,20.55
2023-07-21T22:47:01.893Z,20.51
2023-07-21T22:49:34.251Z,20.49
2023-07-21T22:52:09.001Z,20.49
2023-07-21T22:54:41.683Z,20.49
2023-07-21T22:57:14.103Z,20.49
2023-07-21T22:59:46.854Z,20.47
2023-07-21T23:02:21.922Z,20.47
2023-07-21T23:04:54.948Z,20.47
2023-07-21T23:07:27.749Z,20.46
2023-07-21T23:10:00.315Z,20.44
2023-07-21T23:12:33.012Z,20.44
2023-07-21T23:15:06.576Z,20.45
2023-07-21T23:17:40.330Z,20.43
2023-07-21T23:20:15.009Z,20.42
2023-07-21T23:22:47.457Z,20.43
2023-07-21T23:25:19.947Z,20.39
2023-07-21T23:27:53.045Z,20.38
2023-07-21T23:30:25.711Z,20.37
2023-07-21T23:32:59.053Z,20.34
2023-07-21T23:35:32.239Z,20.36
2023-07-21T23:38:04.631Z,20.37
2023-07-21T23:40:37.769Z,20.33
2023-07-21T23:43:10.265Z,20.28
2023-07-21T23:45:42.742Z,20.27
2023-07-21T23:48:17.015Z,20.25
2023-07-21T23:50:49.768Z,20.24
2023-07-21T23:53:22.618Z,20.19
2023-07-21T23:55:55.250Z,20.13
2023-07-21T23:58:27.829Z,20.11
